sensor_id;sensor_type;location;lat;lon;timestamp;pressure;altitude;pressure_sealevel;temperature;humidity
7836;BME280;3963;42.658;23.298;2023-03-12T00:00:57;58374.41;;;2.54;100.00
7836;BME280;3963;42.658;23.298;2023-03-12T00:03:24;58419.59;;;2.46;100.00
7836;BME280;3963;42.658;23.298;2023-03-12T00:05:50;58379.34;;;2.49;100.00
7836;BME280;3963;42.658;23.298;2023-03-12T00:08:17;58393.28;;;2.38;100.00
7836;BME280;3963;42.658;23.298;2023-03-12T00:10:44;58366.50;;;2.32;100.00
7836;BME280;3963;42.658;23.298;2023-03-12T00:13:10;58375.75;;;2.33;100.00
7836;BME280;3963;42.658;23.298;2023-03-12T00:15:39;58372.56;;;2.30;100.00
7836;BME280;3963;42.658;23.298;2023-03-12T00:18:06;58389.75;;;2.24;100.00
7836;BME280;3963;42.658;23.298;2023-03-12T00:20:32;58420.91;;;2.25;100.00
7836;BME280;3963;42.658;23.298;2023-03-12T00:22:59;58382.44;;;2.20;100.00
7836;BME280;3963;42.658;23.298;2023-03-12T00:25:26;58348.66;;;2.17;100.00
7836;BME280;3963;42.658;23.298;2023-03-12T00:27:53;58345.72;;;2.21;100.00
7836;BME280;3963;42.658;23.298;2023-03-12T00:30:19;58415.72;;;2.22;100.00
7836;BME280;3963;42.658;23.298;2023-03-12T00:32:47;58386.78;;;2.12;100.00
7836;BME280;3963;42.658;23.298;2023-03-12T00:35:14;58369.00;;;2.14;100.00
7836;BME280;3963;42.658;23.298;2023-03-12T00:37:41;58361.88;;;2.15;100.00
7836;BME280;3963;42.658;23.298;2023-03-12T00:40:09;58337.81;;;2.14;100.00
7836;BME280;3963;42.658;23.298;2023-03-12T00:42:36;58329.09;;;2.13;100.00
7836;BME280;3963;42.658;23.298;2023-03-12T00:45:03;58360.03;;;2.06;100.00
7836;BME280;3963;42.658;23.298;2023-03-12T00:47:29;58342.75;;;2.09;100.00
7836;BME280;3963;42.658;23.298;2023-03-12T00:49:57;58374.28;;;2.05;100.00
7836;BME280;3963;42.658;23.298;2023-03-12T00:52:24;58357.97;;;2.06;100.00
7836;BME280;3963;42.658;23.298;2023-03-12T00:54:51;58367.31;;;2.10;100.00
7836;BME280;3963;42.658;23.298;2023-03-12T00:57:22;58326.84;;;2.06;100.00
7836;BME280;3963;42.658;23.298;2023-03-12T00:59:49;58346.91;;;2.10;100.00
7836;BME280;3963;42.658;23.298;2023-03-12T01:02:15;58325.00;;;1.97;100.00
7836;BME280;3963;42.658;23.298;2023-03-12T01:04:42;58346.66;;;2.03;100.00
7836;BME280;3963;42.658;23.298;2023-03-12T01:07:10;58341.53;;;2.03;100.00
7836;BME280;3963;42.658;23.298;2023-03-12T01:09:37;58389.59;;;2.05;100.00
7836;BME280;3963;42.658;23.298;2023-03-12T01:12:04;58358.25;;;1.99;100.00
7836;BME280;3963;42.658;23.298;2023-03-12T01:14:32;58346.81;;;1.93;100.00
7836;BME280;3963;42.658;23.298;2023-03-12T01:16:59;58337.41;;;1.87;100.00
7836;BME280;3963;42.658;23.298;2023-03-12T01:19:26;58319.63;;;1.89;100.00
7836;BME280;3963;42.658;23.298;2023-03-12T01:21:53;58350.69;;;1.87;100.00
7836;BME280;3963;42.658;23.298;2023-03-12T01:24:22;58311.81;;;1.84;100.00
7836;BME280;3963;42.658;23.298;2023-03-12T01:26:48;58338.72;;;1.81;100.00
7836;BME280;3963;42.658;23.298;2023-03-12T01:29:15;58308.09;;;1.81;100.00
7836;BME280;3963;42.658;23.298;2023-03-12T01:31:42;58314.28;;;1.82;100.00
7836;BME280;3963;42.658;23.298;2023-03-12T01:34:09;58321.47;;;1.84;100.00
7836;BME280;3963;42.658;23.298;2023-03-12T01:36:37;58345.50;;;1.85;100.00
7836;BME280;3963;42.658;23.298;2023-03-12T01:39:04;58307.66;;;1.83;100.00
7836;BME280;3963;42.658;23.298;2023-03-12T01:41:32;58331.69;;;1.84;100.00
7836;BME280;3963;42.658;23.298;2023-03-12T01:44:00;58340.03;;;1.89;100.00
7836;BME280;3963;42.658;23.298;2023-03-12T01:46:30;58307.47;;;1.92;100.00
7836;BME280;3963;42.658;23.298;2023-03-12T01:49:02;58354.28;;;1.88;100.00
7836;BME280;3963;42.658;23.298;2023-03-12T01:51:33;58295.44;;;1.83;100.00
7836;BME280;3963;42.658;23.298;2023-03-12T01:54:04;58307.56;;;1.80;100.00
7836;BME280;3963;42.658;23.298;2023-03-12T01:56:35;58317.94;;;1.85;100.00
7836;BME280;3963;42.658;23.298;2023-03-12T01:59:09;58317.59;;;1.90;100.00
7836;BME280;3963;42.658;23.298;2023-03-12T02:01:38;58345.41;;;1.97;100.00
7836;BME280;3963;42.658;23.298;2023-03-12T02:04:06;58353.16;;;2.14;100.00
7836;BME280;3963;42.658;23.298;2023-03-12T02:06:36;58363.44;;;2.02;100.00
7836;BME280;3963;42.658;23.298;2023-03-12T02:09:05;58349.63;;;2.01;100.00
7836;BME280;3963;42.658;23.298;2023-03-12T02:11:33;58350.53;;;1.97;100.00
7836;BME280;3963;42.658;23.298;2023-03-12T02:14:00;58324.47;;;1.96;100.00
7836;BME280;3963;42.658;23.298;2023-03-12T02:16:28;58331.84;;;1.74;100.00
7836;BME280;3963;42.658;23.298;2023-03-12T02:18:56;58299.31;;;1.92;100.00
7836;BME280;3963;42.658;23.298;2023-03-12T02:21:27;58330.28;;;1.87;100.00
7836;BME280;3963;42.658;23.298;2023-03-12T02:24:02;58335.47;;;1.90;100.00
7836;BME280;3963;42.658;23.298;2023-03-12T02:26:34;58293.50;;;1.86;100.00
7836;BME280;3963;42.658;23.298;2023-03-12T02:29:02;58304.22;;;1.87;100.00
7836;BME280;3963;42.658;23.298;2023-03-12T02:31:34;58330.13;;;1.82;100.00
7836;BME280;3963;42.658;23.298;2023-03-12T02:34:03;58328.69;;;1.86;100.00
7836;BME280;3963;42.658;23.298;2023-03-12T02:36:30;58376.13;;;1.99;100.00
7836;BME280;3963;42.658;23.298;2023-03-12T02:38:56;58323.31;;;2.07;100.00
7836;BME280;3963;42.658;23.298;2023-03-12T02:41:25;58310.28;;;1.85;100.00
7836;BME280;3963;42.658;23.298;2023-03-12T02:43:59;58338.03;;;1.90;100.00
7836;BME280;3963;42.658;23.298;2023-03-12T02:46:28;58306.00;;;1.79;100.00
7836;BME280;3963;42.658;23.298;2023-03-12T02:48:56;58316.13;;;1.76;100.00
7836;BME280;3963;42.658;23.298;2023-03-12T02:51:24;58317.44;;;1.85;100.00
7836;BME280;3963;42.658;23.298;2023-03-12T02:53:51;58325.09;;;1.85;100.00
7836;BME280;3963;42.658;23.298;2023-03-12T02:56:20;58263.69;;;1.80;100.00
7836;BME280;3963;42.658;23.298;2023-03-12T02:58:47;58315.84;;;1.83;100.00
7836;BME280;3963;42.658;23.298;2023-03-12T03:01:16;58296.16;;;1.74;100.00
7836;BME280;3963;42.658;23.298;2023-03-12T03:03:44;58291.13;;;1.77;100.00
7836;BME280;3963;42.658;23.298;2023-03-12T03:06:10;58290.88;;;1.84;100.00
7836;BME280;3963;42.658;23.298;2023-03-12T03:08:37;58322.34;;;1.80;100.00
7836;BME280;3963;42.658;23.298;2023-03-12T03:11:04;58280.06;;;1.81;100.00
7836;BME280;3963;42.658;23.298;2023-03-12T03:13:32;58285.69;;;1.81;100.00
7836;BME280;3963;42.658;23.298;2023-03-12T03:15:59;58250.34;;;1.62;100.00
7836;BME280;3963;42.658;23.298;2023-03-12T03:18:30;58301.09;;;1.69;100.00
7836;BME280;3963;42.658;23.298;2023-03-12T03:20:58;58280.69;;;1.69;100.00
7836;BME280;3963;42.658;23.298;2023-03-12T03:23:26;58282.88;;;1.59;100.00
7836;BME280;3963;42.658;23.298;2023-03-12T03:25:53;58279.09;;;1.67;100.00
7836;BME280;3963;42.658;23.298;2023-03-12T03:28:21;58305.03;;;1.65;100.00
7836;BME280;3963;42.658;23.298;2023-03-12T03:30:48;58285.09;;;1.63;100.00
7836;BME280;3963;42.658;23.298;2023-03-12T03:33:17;58296.25;;;1.62;100.00
7836;BME280;3963;42.658;23.298;2023-03-12T03:35:46;58282.97;;;1.61;100.00
7836;BME280;3963;42.658;23.298;2023-03-12T03:38:13;58280.59;;;1.66;100.00
7836;BME280;3963;42.658;23.298;2023-03-12T03:40:40;58286.66;;;1.65;100.00
7836;BME280;3963;42.658;23.298;2023-03-12T03:43:06;58293.34;;;1.66;100.00
7836;BME280;3963;42.658;23.298;2023-03-12T03:45:33;58282.97;;;1.61;100.00
7836;BME280;3963;42.658;23.298;2023-03-12T03:48:00;58273.66;;;1.57;100.00
7836;BME280;3963;42.658;23.298;2023-03-12T03:50:27;58303.38;;;1.61;100.00
7836;BME280;3963;42.658;23.298;2023-03-12T03:52:55;58290.78;;;1.66;100.00
7836;BME280;3963;42.658;23.298;2023-03-12T03:55:21;58278.75;;;1.57;100.00
7836;BME280;3963;42.658;23.298;2023-03-12T03:57:48;58270.13;;;1.59;100.00
7836;BME280;3963;42.658;23.298;2023-03-12T04:00:15;58294.22;;;1.62;100.00
7836;BME280;3963;42.658;23.298;2023-03-12T04:02:42;58283.66;;;1.52;100.00
7836;BME280;3963;42.658;23.298;2023-03-12T04:05:10;58271.38;;;1.50;100.00
7836;BME280;3963;42.658;23.298;2023-03-12T04:07:37;58298.09;;;1.42;100.00
7836;BME280;3963;42.658;23.298;2023-03-12T04:10:07;58302.31;;;1.46;100.00
7836;BME280;3963;42.658;23.298;2023-03-12T04:12:34;58264.88;;;1.39;100.00
7836;BME280;3963;42.658;23.298;2023-03-12T04:15:01;58227.78;;;1.43;100.00
7836;BME280;3963;42.658;23.298;2023-03-12T04:17:27;58246.25;;;1.31;100.00
7836;BME280;3963;42.658;23.298;2023-03-12T04:19:54;58224.09;;;1.25;100.00
7836;BME280;3963;42.658;23.298;2023-03-12T04:22:21;58224.53;;;1.23;100.00
7836;BME280;3963;42.658;23.298;2023-03-12T04:24:48;58213.53;;;1.29;100.00
7836;BME280;3963;42.658;23.298;2023-03-12T04:27:16;58265.22;;;1.35;100.00
7836;BME280;3963;42.658;23.298;2023-03-12T04:29:43;58254.31;;;1.29;100.00
7836;BME280;3963;42.658;23.298;2023-03-12T04:32:10;58250.19;;;1.28;100.00
7836;BME280;3963;42.658;23.298;2023-03-12T04:34:37;58259.34;;;1.27;100.00
7836;BME280;3963;42.658;23.298;2023-03-12T04:37:04;58243.97;;;1.24;100.00
7836;BME280;3963;42.658;23.298;2023-03-12T04:39:30;58261.34;;;1.26;100.00
7836;BME280;3963;42.658;23.298;2023-03-12T04:41:57;58255.13;;;1.23;100.00
7836;BME280;3963;42.658;23.298;2023-03-12T04:44:25;58234.38;;;1.27;100.00
7836;BME280;3963;42.658;23.298;2023-03-12T04:46:52;58277.88;;;1.32;100.00
7836;BME280;3963;42.658;23.298;2023-03-12T04:49:19;58261.09;;;1.33;100.00
7836;BME280;3963;42.658;23.298;2023-03-12T04:51:45;58234.63;;;1.20;100.00
7836;BME280;3963;42.658;23.298;2023-03-12T04:54:12;58209.34;;;1.25;100.00
7836;BME280;3963;42.658;23.298;2023-03-12T04:56:39;58228.13;;;1.24;100.00
7836;BME280;3963;42.658;23.298;2023-03-12T04:59:06;58231.84;;;1.27;100.00
7836;BME280;3963;42.658;23.298;2023-03-12T05:01:35;58277.88;;;1.32;100.00
7836;BME280;3963;42.658;23.298;2023-03-12T05:04:03;58265.66;;;1.47;100.00
7836;BME280;3963;42.658;23.298;2023-03-12T05:06:30;58280.88;;;1.45;100.00
7836;BME280;3963;42.658;23.298;2023-03-12T05:08:56;58262.56;;;1.47;100.00
7836;BME280;3963;42.658;23.298;2023-03-12T05:11:23;58241.66;;;1.61;100.00
7836;BME280;3963;42.658;23.298;2023-03-12T05:13:50;58289.56;;;1.60;100.00
7836;BME280;3963;42.658;23.298;2023-03-12T05:16:17;58328.59;;;1.68;100.00
7836;BME280;3963;42.658;23.298;2023-03-12T05:18:46;58322.03;;;1.70;100.00
7836;BME280;3963;42.658;23.298;2023-03-12T05:21:14;58298.00;;;1.68;100.00
7836;BME280;3963;42.658;23.298;2023-03-12T05:23:43;58272.03;;;1.71;98.45
7836;BME280;3963;42.658;23.298;2023-03-12T05:26:15;58281.81;;;1.73;99.06
7836;BME280;3963;42.658;23.298;2023-03-12T05:28:42;58265.91;;;1.70;100.00
7836;BME280;3963;42.658;23.298;2023-03-12T05:31:10;58299.84;;;1.78;100.00
7836;BME280;3963;42.658;23.298;2023-03-12T05:33:37;58305.75;;;1.71;100.00
7836;BME280;3963;42.658;23.298;2023-03-12T05:36:07;58330.81;;;1.88;100.00
7836;BME280;3963;42.658;23.298;2023-03-12T05:38:34;58263.09;;;1.62;100.00
7836;BME280;3963;42.658;23.298;2023-03-12T05:41:01;58297.28;;;1.78;100.00
7836;BME280;3963;42.658;23.298;2023-03-12T05:43:28;58292.28;;;1.80;100.00
7836;BME280;3963;42.658;23.298;2023-03-12T05:45:58;58326.31;;;1.91;100.00
7836;BME280;3963;42.658;23.298;2023-03-12T05:48:25;58344.53;;;1.86;100.00
7836;BME280;3963;42.658;23.298;2023-03-12T05:50:52;58344.34;;;1.96;100.00
7836;BME280;3963;42.658;23.298;2023-03-12T05:53:20;58320.06;;;2.02;100.00
7836;BME280;3963;42.658;23.298;2023-03-12T05:55:47;58350.53;;;1.97;100.00
7836;BME280;3963;42.658;23.298;2023-03-12T05:58:14;58319.19;;;1.91;100.00
7836;BME280;3963;42.658;23.298;2023-03-12T06:00:41;58338.88;;;2.00;100.00
7836;BME280;3963;42.658;23.298;2023-03-12T06:03:09;58314.44;;;2.01;100.00
7836;BME280;3963;42.658;23.298;2023-03-12T06:05:37;58316.72;;;1.94;100.00
7836;BME280;3963;42.658;23.298;2023-03-12T06:08:04;58366.53;;;2.02;100.00
7836;BME280;3963;42.658;23.298;2023-03-12T06:10:33;58365.75;;;2.09;100.00
7836;BME280;3963;42.658;23.298;2023-03-12T06:13:02;58359.94;;;2.18;100.00
7836;BME280;3963;42.658;23.298;2023-03-12T06:15:29;58336.22;;;2.12;100.00
7836;BME280;3963;42.658;23.298;2023-03-12T06:17:56;58338.88;;;2.30;100.00
7836;BME280;3963;42.658;23.298;2023-03-12T06:20:23;58354.53;;;2.25;100.00
7836;BME280;3963;42.658;23.298;2023-03-12T06:22:50;58357.16;;;2.28;100.00
7836;BME280;3963;42.658;23.298;2023-03-12T06:25:17;58357.34;;;2.33;100.00
7836;BME280;3963;42.658;23.298;2023-03-12T06:27:45;58355.94;;;2.36;100.00
7836;BME280;3963;42.658;23.298;2023-03-12T06:30:13;58390.81;;;2.40;100.00
7836;BME280;3963;42.658;23.298;2023-03-12T06:32:40;58356.63;;;2.27;100.00
7836;BME280;3963;42.658;23.298;2023-03-12T06:35:07;58395.03;;;2.30;100.00
7836;BME280;3963;42.658;23.298;2023-03-12T06:37:34;58338.69;;;2.24;100.00
7836;BME280;3963;42.658;23.298;2023-03-12T06:40:01;58343.63;;;2.19;100.00
7836;BME280;3963;42.658;23.298;2023-03-12T06:42:29;58356.84;;;2.17;100.00
7836;BME280;3963;42.658;23.298;2023-03-12T06:48:04;58347.78;;;2.21;100.00
7836;BME280;3963;42.658;23.298;2023-03-12T06:50:31;58360.00;;;2.20;100.00
7836;BME280;3963;42.658;23.298;2023-03-12T06:52:57;58344.84;;;2.26;100.00
7836;BME280;3963;42.658;23.298;2023-03-12T06:55:24;58372.69;;;2.33;100.00
7836;BME280;3963;42.658;23.298;2023-03-12T06:57:51;58358.94;;;2.34;100.00
7836;BME280;3963;42.658;23.298;2023-03-12T07:00:20;58376.09;;;2.43;100.00
7836;BME280;3963;42.658;23.298;2023-03-12T07:02:47;58448.66;;;2.44;100.00
7836;BME280;3963;42.658;23.298;2023-03-12T07:05:14;58419.41;;;2.55;100.00
7836;BME280;3963;42.658;23.298;2023-03-12T07:07:41;58396.25;;;2.50;100.00
7836;BME280;3963;42.658;23.298;2023-03-12T07:10:09;58383.31;;;2.31;100.00
7836;BME280;3963;42.658;23.298;2023-03-12T07:12:37;58308.34;;;1.88;100.00
7836;BME280;3963;42.658;23.298;2023-03-12T07:15:04;58337.94;;;2.02;100.00
7836;BME280;3963;42.658;23.298;2023-03-12T07:17:32;58349.19;;;2.03;100.00
7836;BME280;3963;42.658;23.298;2023-03-12T07:19:59;58347.34;;;2.08;100.00
7836;BME280;3963;42.658;23.298;2023-03-12T07:22:26;58342.06;;;2.18;100.00
7836;BME280;3963;42.658;23.298;2023-03-12T07:24:52;58348.66;;;2.17;100.00
7836;BME280;3963;42.658;23.298;2023-03-12T07:27:19;58370.22;;;2.20;100.00
7836;BME280;3963;42.658;23.298;2023-03-12T07:29:47;58317.41;;;2.14;100.00
7836;BME280;3963;42.658;23.298;2023-03-12T07:32:13;58355.88;;;2.19;100.00
7836;BME280;3963;42.658;23.298;2023-03-12T07:34:42;58370.91;;;2.26;100.00
7836;BME280;3963;42.658;23.298;2023-03-12T07:37:09;58382.78;;;2.45;100.00
7836;BME280;3963;42.658;23.298;2023-03-12T07:39:35;58391.22;;;2.53;100.00
7836;BME280;3963;42.658;23.298;2023-03-12T07:42:02;58384.09;;;2.53;100.00
7836;BME280;3963;42.658;23.298;2023-03-12T07:44:29;58383.91;;;2.48;100.00
7836;BME280;3963;42.658;23.298;2023-03-12T07:46:58;58406.75;;;2.43;100.00
7836;BME280;3963;42.658;23.298;2023-03-12T07:49:24;58407.19;;;2.56;100.00
7836;BME280;3963;42.658;23.298;2023-03-12T07:51:53;58422.31;;;2.65;100.00
7836;BME280;3963;42.658;23.298;2023-03-12T07:54:20;58409.19;;;2.70;100.00
7836;BME280;3963;42.658;23.298;2023-03-12T07:56:49;58473.03;;;2.99;100.00
7836;BME280;3963;42.658;23.298;2023-03-12T07:59:16;58449.84;;;3.09;100.00
7836;BME280;3963;42.658;23.298;2023-03-12T08:01:44;58474.47;;;3.10;100.00
7836;BME280;3963;42.658;23.298;2023-03-12T08:04:10;58458.06;;;3.09;100.00
7836;BME280;3963;42.658;23.298;2023-03-12T08:06:37;58480.28;;;3.16;98.66
7836;BME280;3963;42.658;23.298;2023-03-12T08:09:08;58454.88;;;3.06;96.90
7836;BME280;3963;42.658;23.298;2023-03-12T08:11:35;58442.75;;;2.95;96.33
7836;BME280;3963;42.658;23.298;2023-03-12T08:14:02;58447.22;;;3.06;97.98
7836;BME280;3963;42.658;23.298;2023-03-12T08:16:29;58461.66;;;3.25;97.37
7836;BME280;3963;42.658;23.298;2023-03-12T08:18:56;58526.91;;;3.48;97.18
7836;BME280;3963;42.658;23.298;2023-03-12T08:21:23;58545.16;;;3.73;96.26
7836;BME280;3963;42.658;23.298;2023-03-12T08:23:50;58538.06;;;3.76;91.32
7836;BME280;3963;42.658;23.298;2023-03-12T08:26:18;58597.91;;;3.74;90.81
7836;BME280;3963;42.658;23.298;2023-03-12T08:28:45;58598.41;;;4.04;73.51
7836;BME280;3963;42.658;23.298;2023-03-12T08:31:12;58607.19;;;4.52;69.27
7836;BME280;3963;42.658;23.298;2023-03-12T08:33:39;58649.34;;;4.55;65.54
7836;BME280;3963;42.658;23.298;2023-03-12T08:36:08;58641.81;;;4.60;65.90
7836;BME280;3963;42.658;23.298;2023-03-12T08:38:35;58747.44;;;5.19;65.94
7836;BME280;3963;42.658;23.298;2023-03-12T08:41:01;58793.50;;;5.61;63.48
7836;BME280;3963;42.658;23.298;2023-03-12T08:43:30;58857.50;;;5.70;62.55
7836;BME280;3963;42.658;23.298;2023-03-12T08:45:58;58728.22;;;5.28;62.56
7836;BME280;3963;42.658;23.298;2023-03-12T08:48:25;58708.25;;;4.99;64.36
7836;BME280;3963;42.658;23.298;2023-03-12T08:50:54;58729.56;;;5.07;64.47
7836;BME280;3963;42.658;23.298;2023-03-12T08:53:21;58746.13;;;5.11;65.46
7836;BME280;3963;42.658;23.298;2023-03-12T08:55:48;58809.03;;;5.80;63.38
7836;BME280;3963;42.658;23.298;2023-03-12T08:58:17;58861.47;;;6.10;61.00
7836;BME280;3963;42.658;23.298;2023-03-12T09:00:45;58910.88;;;6.43;59.43
7836;BME280;3963;42.658;23.298;2023-03-12T09:03:12;58949.66;;;7.09;57.21
7836;BME280;3963;42.658;23.298;2023-03-12T09:05:39;59069.78;;;7.74;55.82
7836;BME280;3963;42.658;23.298;2023-03-12T09:08:06;59064.25;;;7.93;53.53
7836;BME280;3963;42.658;23.298;2023-03-12T09:10:33;59047.69;;;7.46;53.57
7836;BME280;3963;42.658;23.298;2023-03-12T09:13:01;59096.97;;;7.85;52.39
7836;BME280;3963;42.658;23.298;2023-03-12T09:15:28;59056.50;;;7.32;52.91
7836;BME280;3963;42.658;23.298;2023-03-12T09:17:56;59016.38;;;7.33;53.06
7836;BME280;3963;42.658;23.298;2023-03-12T09:20:24;58969.41;;;6.84;54.22
7836;BME280;3963;42.658;23.298;2023-03-12T09:22:51;59018.84;;;7.31;53.46
7836;BME280;3963;42.658;23.298;2023-03-12T09:25:18;58998.38;;;7.18;52.75
7836;BME280;3963;42.658;23.298;2023-03-12T09:27:46;59124.13;;;8.11;52.48
7836;BME280;3963;42.658;23.298;2023-03-12T09:30:15;59255.69;;;9.16;49.28
7836;BME280;3963;42.658;23.298;2023-03-12T09:32:43;59286.81;;;9.35;49.94
7836;BME280;3963;42.658;23.298;2023-03-12T09:35:14;59192.50;;;8.95;47.98
7836;BME280;3963;42.658;23.298;2023-03-12T09:37:41;59236.84;;;8.93;47.72
7836;BME280;3963;42.658;23.298;2023-03-12T09:40:15;59336.78;;;9.75;47.66
7836;BME280;3963;42.658;23.298;2023-03-12T09:42:44;59411.81;;;10.22;45.46
7836;BME280;3963;42.658;23.298;2023-03-12T09:45:15;59317.81;;;9.50;45.04
7836;BME280;3963;42.658;23.298;2023-03-12T09:47:47;59243.41;;;9.19;47.53
7836;BME280;3963;42.658;23.298;2023-03-12T09:50:20;59365.47;;;9.83;44.46
7836;BME280;3963;42.658;23.298;2023-03-12T09:52:54;59349.59;;;9.87;45.50
7836;BME280;3963;42.658;23.298;2023-03-12T09:55:23;59319.16;;;9.59;44.98
7836;BME280;3963;42.658;23.298;2023-03-12T09:57:50;59365.56;;;9.85;44.64
7836;BME280;3963;42.658;23.298;2023-03-12T10:00:19;59416.84;;;10.48;43.79
7836;BME280;3963;42.658;23.298;2023-03-12T10:03:16;59397.00;;;10.13;43.60
7836;BME280;3963;42.658;23.298;2023-03-12T10:05:57;59391.41;;;10.00;44.26
7836;BME280;3963;42.658;23.298;2023-03-12T10:08:33;59454.22;;;10.67;40.77
7836;BME280;3963;42.658;23.298;2023-03-12T10:11:10;59408.44;;;10.14;41.49
7836;BME280;3963;42.658;23.298;2023-03-12T10:13:52;59372.88;;;9.87;42.26
7836;BME280;3963;42.658;23.298;2023-03-12T10:16:32;59357.53;;;9.78;42.47
7836;BME280;3963;42.658;23.298;2023-03-12T10:19:12;59294.13;;;9.37;43.73
7836;BME280;3963;42.658;23.298;2023-03-12T10:21:54;59300.72;;;9.49;43.42
7836;BME280;3963;42.658;23.298;2023-03-12T10:24:39;59393.53;;;10.02;44.80
7836;BME280;3963;42.658;23.298;2023-03-12T10:27:11;59449.69;;;10.55;41.83
7836;BME280;3963;42.658;23.298;2023-03-12T10:29:40;59569.47;;;11.19;41.32
7836;BME280;3963;42.658;23.298;2023-03-12T10:32:13;59460.81;;;10.78;42.43
7836;BME280;3963;42.658;23.298;2023-03-12T10:34:45;59486.44;;;10.70;41.02
7836;BME280;3963;42.658;23.298;2023-03-12T10:37:16;59491.16;;;10.87;40.63
7836;BME280;3963;42.658;23.298;2023-03-12T10:39:46;59472.88;;;10.67;41.12
7836;BME280;3963;42.658;23.298;2023-03-12T10:42:15;59509.75;;;10.85;40.54
7836;BME280;3963;42.658;23.298;2023-03-12T10:44:44;59495.34;;;10.88;39.58
7836;BME280;3963;42.658;23.298;2023-03-12T10:47:27;59463.91;;;10.46;40.17
7836;BME280;3963;42.658;23.298;2023-03-12T10:50:11;59543.06;;;11.36;39.51
7836;BME280;3963;42.658;23.298;2023-03-12T10:52:39;59648.50;;;12.15;39.51
7836;BME280;3963;42.658;23.298;2023-03-12T10:55:12;59648.34;;;11.96;36.04
7836;BME280;3963;42.658;23.298;2023-03-12T10:57:40;59529.25;;;11.25;37.91
7836;BME280;3963;42.658;23.298;2023-03-12T11:00:09;59469.41;;;10.71;39.50
7836;BME280;3963;42.658;23.298;2023-03-12T11:02:39;59455.47;;;10.58;38.70
7836;BME280;3963;42.658;23.298;2023-03-12T11:05:19;59340.19;;;10.15;40.04
7836;BME280;3963;42.658;23.298;2023-03-12T11:07:48;59466.66;;;10.66;39.54
7836;BME280;3963;42.658;23.298;2023-03-12T11:10:21;59471.72;;;10.64;40.93
7836;BME280;3963;42.658;23.298;2023-03-12T11:12:58;59476.78;;;10.76;39.19
7836;BME280;3963;42.658;23.298;2023-03-12T11:15:27;59399.25;;;10.17;41.58
7836;BME280;3963;42.658;23.298;2023-03-12T11:18:25;59543.03;;;11.19;40.11
7836;BME280;3963;42.658;23.298;2023-03-12T11:20:53;59554.28;;;11.15;38.35
7836;BME280;3963;42.658;23.298;2023-03-12T11:23:26;59468.06;;;10.63;38.64
7836;BME280;3963;42.658;23.298;2023-03-12T11:25:57;59500.56;;;10.74;40.85
7836;BME280;3963;42.658;23.298;2023-03-12T11:28:33;59505.75;;;10.74;40.06
7836;BME280;3963;42.658;23.298;2023-03-12T11:31:02;59494.78;;;11.02;38.92
7836;BME280;3963;42.658;23.298;2023-03-12T11:33:31;59503.94;;;10.82;39.17
7836;BME280;3963;42.658;23.298;2023-03-12T11:36:10;59469.69;;;10.49;38.66
7836;BME280;3963;42.658;23.298;2023-03-12T11:38:50;59412.63;;;10.15;39.59
7836;BME280;3963;42.658;23.298;2023-03-12T11:44:20;59310.50;;;9.48;40.54
7836;BME280;3963;42.658;23.298;2023-03-12T11:46:58;59307.75;;;9.58;40.81
7836;BME280;3963;42.658;23.298;2023-03-12T11:49:39;59335.16;;;9.74;39.63
7836;BME280;3963;42.658;23.298;2023-03-12T11:52:13;59356.72;;;9.84;40.63
7836;BME280;3963;42.658;23.298;2023-03-12T11:55:07;59352.47;;;9.66;40.81
7836;BME280;3963;42.658;23.298;2023-03-12T11:57:42;59336.72;;;9.58;41.64
7836;BME280;3963;42.658;23.298;2023-03-12T12:00:14;59379.34;;;9.96;39.66
7836;BME280;3963;42.658;23.298;2023-03-12T12:03:19;59326.38;;;9.58;39.13
7836;BME280;3963;42.658;23.298;2023-03-12T12:05:57;59327.25;;;9.54;40.55
7836;BME280;3963;42.658;23.298;2023-03-12T12:08:34;59326.34;;;9.73;40.07
7836;BME280;3963;42.658;23.298;2023-03-12T12:11:10;59387.84;;;9.87;40.54
7836;BME280;3963;42.658;23.298;2023-03-12T12:13:49;59271.78;;;9.33;40.89
7836;BME280;3963;42.658;23.298;2023-03-12T12:16:37;59293.97;;;9.32;43.33
7836;BME280;3963;42.658;23.298;2023-03-12T12:19:19;59407.78;;;10.11;40.48
7836;BME280;3963;42.658;23.298;2023-03-12T12:22:00;59338.44;;;9.94;40.75
7836;BME280;3963;42.658;23.298;2023-03-12T12:24:37;59382.81;;;10.21;42.03
7836;BME280;3963;42.658;23.298;2023-03-12T12:27:14;59292.56;;;9.21;43.52
7836;BME280;3963;42.658;23.298;2023-03-12T12:29:59;59246.47;;;8.87;43.78
7836;BME280;3963;42.658;23.298;2023-03-12T12:32:41;59229.34;;;9.01;43.61
7836;BME280;3963;42.658;23.298;2023-03-12T12:35:22;59224.50;;;8.64;43.85
7836;BME280;3963;42.658;23.298;2023-03-12T12:37:55;59168.03;;;8.13;43.95
7836;BME280;3963;42.658;23.298;2023-03-12T12:40:26;59182.63;;;8.47;44.20
7836;BME280;3963;42.658;23.298;2023-03-12T12:43:03;59202.38;;;8.51;44.47
7836;BME280;3963;42.658;23.298;2023-03-12T12:45:32;59185.44;;;8.54;44.66
7836;BME280;3963;42.658;23.298;2023-03-12T12:48:01;59171.69;;;8.44;45.43
7836;BME280;3963;42.658;23.298;2023-03-12T12:50:31;59190.09;;;8.54;44.59
7836;BME280;3963;42.658;23.298;2023-03-12T12:53:07;59219.59;;;8.72;45.74
7836;BME280;3963;42.658;23.298;2023-03-12T12:55:44;59210.97;;;8.76;44.60
7836;BME280;3963;42.658;23.298;2023-03-12T12:58:19;59214.25;;;8.67;45.72
7836;BME280;3963;42.658;23.298;2023-03-12T13:00:49;59174.63;;;8.39;46.99
7836;BME280;3963;42.658;23.298;2023-03-12T13:03:18;59194.53;;;8.33;45.32
7836;BME280;3963;42.658;23.298;2023-03-12T13:05:53;59118.19;;;7.88;46.31
7836;BME280;3963;42.658;23.298;2023-03-12T13:08:57;59147.78;;;7.94;46.07
7836;BME280;3963;42.658;23.298;2023-03-12T13:11:28;59107.78;;;7.86;46.86
7836;BME280;3963;42.658;23.298;2023-03-12T13:14:17;59105.16;;;7.54;48.10
7836;BME280;3963;42.658;23.298;2023-03-12T13:16:45;59058.44;;;7.58;48.52
7836;BME280;3963;42.658;23.298;2023-03-12T13:19:24;59120.31;;;7.90;48.10
7836;BME280;3963;42.658;23.298;2023-03-12T13:22:03;59135.09;;;7.85;47.89
7836;BME280;3963;42.658;23.298;2023-03-12T13:24:38;59044.84;;;7.53;48.32
7836;BME280;3963;42.658;23.298;2023-03-12T13:27:12;59050.38;;;7.34;49.56
7836;BME280;3963;42.658;23.298;2023-03-12T13:29:44;59048.88;;;7.35;50.25
7836;BME280;3963;42.658;23.298;2023-03-12T13:32:36;59022.59;;;7.19;49.78
7836;BME280;3963;42.658;23.298;2023-03-12T13:35:06;58997.22;;;7.00;51.02